createdAt,value
2019-04-20T00:00:50.614Z,4.43
2019-04-20T00:03:13.848Z,3.80
2019-04-20T00:05:43.331Z,3.97
2019-04-20T00:08:16.709Z,3.57
2019-04-20T00:10:51.312Z,3.77
2019-04-20T00:13:21.504Z,3.80
2019-04-20T00:15:40.927Z,4.30
2019-04-20T00:18:11.494Z,3.40
2019-04-20T00:20:41.847Z,4.53
2019-04-20T00:23:26.908Z,4.80
2019-04-20T00:26:17.305Z,3.50
2019-04-20T00:28:58.670Z,3.13
2019-04-20T00:31:24.816Z,3.57
2019-04-20T00:33:50.756Z,3.70
2019-04-20T00:36:08.952Z,3.53
2019-04-20T00:38:42.573Z,3.50
2019-04-20T00:41:10.381Z,3.70
2019-04-20T00:43:39.137Z,3.73
2019-04-20T00:46:18.391Z,3.73
2019-04-20T00:48:46.229Z,4.03
2019-04-20T00:51:25.001Z,3.63
2019-04-20T00:53:39.679Z,3.60
2019-04-20T00:56:05.503Z,3.70
2019-04-20T00:58:47.997Z,3.70
2019-04-20T01:01:20.247Z,3.27
2019-04-20T01:03:47.319Z,3.80
2019-04-20T01:06:39.546Z,3.20
2019-04-20T01:08:55.077Z,3.67
2019-04-20T01:11:30.047Z,3.30
2019-04-20T01:13:58.962Z,3.17
2019-04-20T01:16:33.525Z,3.07
2019-04-20T01:18:51.959Z,3.17
2019-04-20T01:21:23.561Z,2.97
2019-04-20T01:23:56.177Z,3.23
2019-04-20T01:26:21.455Z,3.20
2019-04-20T01:29:03.861Z,3.03
2019-04-20T01:31:27.141Z,3.50
2019-04-20T01:33:58.768Z,3.47
2019-04-20T01:36:37.164Z,3.20
2019-04-20T01:39:00.163Z,3.60
2019-04-20T01:41:18.141Z,3.73
2019-04-20T01:43:46.265Z,3.30
2019-04-20T01:46:19.811Z,3.80
2019-04-20T01:48:44.718Z,3.60
2019-04-20T01:51:19.739Z,3.37
2019-04-20T01:54:02.097Z,3.37
2019-04-20T01:56:32.588Z,3.20
2019-04-20T01:59:20.016Z,3.03
2019-04-20T02:01:59.271Z,3.00
2019-04-20T02:04:32.313Z,2.80
2019-04-20T02:06:59.696Z,3.07
2019-04-20T02:09:28.055Z,2.90
2019-04-20T02:11:55.701Z,2.70
2019-04-20T02:14:34.201Z,3.20
2019-04-20T02:17:04.539Z,3.00
2019-04-20T02:19:37.768Z,3.13
2019-04-20T02:22:07.599Z,3.10
2019-04-20T02:24:23.817Z,3.00
2019-04-20T02:26:52.090Z,3.07
2019-04-20T02:29:40.640Z,3.00
2019-04-20T02:32:26.635Z,3.30
2019-04-20T02:35:16.815Z,3.30
2019-04-20T02:38:02.989Z,3.40
2019-04-20T02:40:46.922Z,3.07
2019-04-20T02:42:57.472Z,3.40
2019-04-20T02:45:40.423Z,3.50
2019-04-20T02:48:01.555Z,3.70
2019-04-20T02:53:04.866Z,3.13
2019-04-20T02:55:24.032Z,3.57
2019-04-20T03:00:18.241Z,3.60
2019-04-20T03:02:34.539Z,3.93
2019-04-20T03:05:03.963Z,3.93
2019-04-20T03:07:35.385Z,3.97
2019-04-20T03:10:12.439Z,3.50
2019-04-20T03:12:59.750Z,3.90
2019-04-20T03:15:01.643Z,3.73
2019-04-20T03:17:39.146Z,3.70
2019-04-20T03:20:04.707Z,3.73
2019-04-20T03:23:05.440Z,3.43
2019-04-20T03:25:19.813Z,3.40
2019-04-20T03:27:45.801Z,3.53
2019-04-20T03:31:15.866Z,3.60
2019-04-20T03:35:43.429Z,3.33
2019-04-20T03:38:07.577Z,4.07
2019-04-20T03:40:29.992Z,3.70
2019-04-20T03:42:44.798Z,3.73
2019-04-20T03:45:17.734Z,3.90
2019-04-20T03:47:57.538Z,3.97
2019-04-20T03:50:35.589Z,3.37
2019-04-20T03:53:19.122Z,3.67
2019-04-20T03:56:02.254Z,4.17
2019-04-20T03:58:40.141Z,4.13
2019-04-20T04:01:43.364Z,3.63
2019-04-20T04:04:17.943Z,3.83
2019-04-20T04:06:33.099Z,3.40
2019-04-20T04:09:03.800Z,3.60
2019-04-20T04:11:41.409Z,3.97
2019-04-20T04:13:52.445Z,3.70
2019-04-20T04:16:22.170Z,3.83
2019-04-20T04:19:01.453Z,4.13
2019-04-20T04:21:33.547Z,4.03
2019-04-20T04:24:03.567Z,3.80
2019-04-20T04:26:34.089Z,3.93
2019-04-20T04:29:13.715Z,3.67
2019-04-20T04:31:36.520Z,3.43
2019-04-20T04:34:27.827Z,3.90
2019-04-20T04:36:35.947Z,4.07
2019-04-20T04:39:08.892Z,3.70
2019-04-20T04:41:37.938Z,4.47
2019-04-20T04:44:04.491Z,4.23
2019-04-20T04:46:16.557Z,3.97
2019-04-20T04:48:47.533Z,3.87
2019-04-20T04:51:22.258Z,3.53
2019-04-20T04:53:52.978Z,4.13
2019-04-20T04:56:18.380Z,4.60
2019-04-20T04:58:44.380Z,3.70
2019-04-20T05:01:20.052Z,4.40
2019-04-20T05:04:10.495Z,4.30
2019-04-20T05:06:32.121Z,4.20
2019-04-20T05:08:49.765Z,4.60
2019-04-20T05:11:15.224Z,4.60
2019-04-20T05:13:50.868Z,4.20
2019-04-20T05:16:33.551Z,4.47
2019-04-20T05:19:05.021Z,4.20
2019-04-20T05:21:39.514Z,4.63
2019-04-20T05:24:29.138Z,4.10
2019-04-20T05:27:13.604Z,4.30
2019-04-20T05:29:27.053Z,3.90
2019-04-20T05:31:56.261Z,4.00
2019-04-20T05:34:45.125Z,4.17
2019-04-20T05:37:24.270Z,4.07
2019-04-20T05:39:48.589Z,4.27
2019-04-20T05:42:09.569Z,4.00
2019-04-20T05:44:45.770Z,4.60
2019-04-20T05:47:11.234Z,4.20
2019-04-20T05:49:40.282Z,4.33
2019-04-20T05:52:24.062Z,4.33
2019-04-20T05:54:44.677Z,4.40
2019-04-20T05:57:14.461Z,4.10
2019-04-20T05:59:45.431Z,4.17
2019-04-20T06:02:11.242Z,4.10
2019-04-20T06:04:54.362Z,4.10
2019-04-20T06:07:15.241Z,4.50
2019-04-20T06:09:42.662Z,3.83
2019-04-20T06:14:51.783Z,4.23
2019-04-20T06:17:49.351Z,4.13
2019-04-20T06:20:19.417Z,3.90
2019-04-20T06:22:52.562Z,3.90
2019-04-20T06:25:38.874Z,3.77
2019-04-20T06:27:55.398Z,4.30
2019-04-20T06:30:13.695Z,4.33
2019-04-20T06:33:12.856Z,4.40
2019-04-20T06:35:57.600Z,4.20
2019-04-20T06:38:32.591Z,4.20
2019-04-20T06:43:05.547Z,4.00
2019-04-20T06:45:48.340Z,4.50
2019-04-20T06:48:08.576Z,4.30
2019-04-20T06:50:36.914Z,4.00
2019-04-20T06:53:32.350Z,4.50
2019-04-20T06:56:06.770Z,4.40
2019-04-20T06:58:47.921Z,3.87
2019-04-20T07:01:03.897Z,4.10
2019-04-20T07:03:42.131Z,3.57
2019-04-20T07:06:06.463Z,3.83
2019-04-20T07:11:05.874Z,3.63
2019-04-20T07:13:22.074Z,3.43
2019-04-20T07:16:13.842Z,3.37
2019-04-20T07:19:01.100Z,3.17
2019-04-20T07:22:03.696Z,3.50
2019-04-20T07:24:25.485Z,3.00
2019-04-20T07:26:49.307Z,3.83
2019-04-20T07:29:24.014Z,3.33
2019-04-20T07:31:44.352Z,3.17
2019-04-20T07:34:18.700Z,3.97
2019-04-20T07:36:45.779Z,3.77
2019-04-20T07:39:24.598Z,3.83
2019-04-20T07:41:56.819Z,3.90
2019-04-20T07:44:24.834Z,3.47
2019-04-20T07:46:57.912Z,3.37
2019-04-20T07:49:12.967Z,2.97
2019-04-20T07:51:31.548Z,3.00
2019-04-20T07:54:23.288Z,3.37
2019-04-20T07:56:43.085Z,3.17
2019-04-20T07:58:58.713Z,3.20
2019-04-20T08:02:20.173Z,2.87
2019-04-20T08:04:56.418Z,3.37
2019-04-20T08:07:12.009Z,3.27
2019-04-20T08:09:47.843Z,3.20
2019-04-20T08:12:41.746Z,3.20
2019-04-20T08:15:18.143Z,3.10
2019-04-20T08:20:09.204Z,2.93
2019-04-20T08:22:42.103Z,2.80
2019-04-20T08:25:01.371Z,2.73
2019-04-20T08:27:23.381Z,2.80
2019-04-20T08:30:09.061Z,2.87
2019-04-20T08:33:09.471Z,2.50
2019-04-20T08:35:51.293Z,2.50
2019-04-20T08:38:47.315Z,3.00
2019-04-20T08:40:43.931Z,2.90
2019-04-20T08:43:20.172Z,4.17
2019-04-20T08:45:49.482Z,3.77
2019-04-20T08:48:18.648Z,3.73
2019-04-20T08:50:44.091Z,4.30
2019-04-20T08:55:37.196Z,3.73
2019-04-20T08:57:51.448Z,3.93
2019-04-20T09:00:27.805Z,3.60
2019-04-20T09:02:55.614Z,3.67
2019-04-20T09:05:30.330Z,3.40
2019-04-20T09:08:00.527Z,3.43
2019-04-20T09:10:39.229Z,3.43
2019-04-20T09:13:02.585Z,3.70
2019-04-20T09:15:19.039Z,3.00
2019-04-20T09:17:54.810Z,3.17
2019-04-20T09:20:34.420Z,2.77
2019-04-20T09:23:15.684Z,2.90
2019-04-20T09:25:59.043Z,3.13
2019-04-20T09:28:34.570Z,2.97
2019-04-20T09:31:12.836Z,3.20
2019-04-20T09:33:43.975Z,3.40
2019-04-20T09:36:15.290Z,3.10
2019-04-20T09:39:01.133Z,3.17
2019-04-20T09:41:42.283Z,2.80
2019-04-20T09:43:51.102Z,3.20
2019-04-20T09:46:20.017Z,2.83
2019-04-20T09:48:54.748Z,3.13
2019-04-20T09:51:38.894Z,3.23
2019-04-20T09:53:58.819Z,3.20
2019-04-20T09:56:32.413Z,3.50
2019-04-20T09:59:09.578Z,2.83
2019-04-20T10:01:30.411Z,2.80
2019-04-20T10:03:47.061Z,3.00
2019-04-20T10:06:18.866Z,3.00
2019-04-20T10:08:51.088Z,3.13
2019-04-20T10:11:14.543Z,3.17
2019-04-20T10:13:43.892Z,2.90
2019-04-20T10:16:13.448Z,3.10
2019-04-20T10:18:46.881Z,3.20
2019-04-20T10:21:11.802Z,2.90
2019-04-20T10:23:40.703Z,3.23
2019-04-20T10:26:08.946Z,2.80
2019-04-20T10:28:37.372Z,2.77
2019-04-20T10:31:06.463Z,3.00
2019-04-20T10:33:35.516Z,3.07
2019-04-20T10:36:04.155Z,3.10
2019-04-20T10:38:35.902Z,3.10
2019-04-20T10:41:11.453Z,3.00
2019-04-20T10:43:33.307Z,3.20
2019-04-20T10:46:02.614Z,3.23
2019-04-20T10:48:31.962Z,3.10
2019-04-20T10:51:01.107Z,3.10
2019-04-20T10:53:30.041Z,3.20
2019-04-20T10:55:58.159Z,3.40
2019-04-20T10:58:27.375Z,3.23
2019-04-20T11:00:55.794Z,3.57
2019-04-20T11:03:24.813Z,3.80
2019-04-20T11:05:53.474Z,3.50
2019-04-20T11:08:24.503Z,3.67
2019-04-20T11:11:05.099Z,3.42
2019-04-20T11:13:23.439Z,4.10
2019-04-20T11:15:52.638Z,4.25
2019-04-20T11:18:21.779Z,3.85
2019-04-20T11:20:51.032Z,4.15
2019-04-20T11:23:22.369Z,3.77
2019-04-20T11:25:50.587Z,4.35
2019-04-20T11:28:19.857Z,4.55
2019-04-20T11:30:48.129Z,4.15
2019-04-20T11:33:16.181Z,4.03
2019-04-20T11:35:45.250Z,3.90
2019-04-20T11:38:17.006Z,4.60
2019-04-20T11:40:44.822Z,4.05
2019-04-20T11:43:13.584Z,4.10
2019-04-20T11:45:42.702Z,4.33
2019-04-20T11:48:11.645Z,4.22
2019-04-20T11:50:39.905Z,4.45
2019-04-20T11:53:09.064Z,4.67
2019-04-20T11:55:38.265Z,4.30
2019-04-20T11:58:07.967Z,4.40
2019-04-20T12:00:47.212Z,4.15
2019-04-20T12:03:24.874Z,4.45
2019-04-20T12:05:51.266Z,4.22
2019-04-20T12:08:16.665Z,4.25
2019-04-20T12:10:50.279Z,4.45
2019-04-20T12:13:14.798Z,4.42
2019-04-20T12:15:43.485Z,4.65
2019-04-20T12:18:11.731Z,4.53
2019-04-20T12:20:42.950Z,4.33
2019-04-20T12:23:12.484Z,4.12
2019-04-20T12:25:42.759Z,4.35
2019-04-20T12:28:11.598Z,4.17
2019-04-20T12:30:39.835Z,4.55
2019-04-20T12:33:09.464Z,4.40
2019-04-20T12:35:38.422Z,4.33
2019-04-20T12:38:07.320Z,4.47
2019-04-20T12:40:35.490Z,4.67
2019-04-20T12:43:04.679Z,4.55
2019-04-20T12:45:33.555Z,4.60
2019-04-20T12:48:01.827Z,4.55
2019-04-20T12:50:29.866Z,4.55
2019-04-20T12:52:58.827Z,3.90
2019-04-20T12:55:26.877Z,4.60
2019-04-20T12:57:55.020Z,4.58
2019-04-20T13:00:25.573Z,5.08
2019-04-20T13:02:53.832Z,4.63
2019-04-20T13:05:22.170Z,4.27
2019-04-20T13:07:55.884Z,4.60
2019-04-20T13:10:21.343Z,4.70
2019-04-20T13:13:08.142Z,4.83
2019-04-20T13:16:00.995Z,4.83
2019-04-20T13:18:41.145Z,5.00
2019-04-20T13:21:09.365Z,4.00
2019-04-20T13:23:37.375Z,5.07
2019-04-20T13:26:07.426Z,4.73
2019-04-20T13:28:35.040Z,4.20
2019-04-20T13:31:03.954Z,4.20
2019-04-20T13:33:33.477Z,3.87
2019-04-20T13:36:01.990Z,4.20
2019-04-20T13:38:30.299Z,3.95
2019-04-20T13:40:59.766Z,4.17
2019-04-20T13:43:27.997Z,4.47
2019-04-20T13:45:57.219Z,4.62
2019-04-20T13:48:25.179Z,4.20
2019-04-20T13:50:53.951Z,4.17
2019-04-20T13:53:23.400Z,4.20
2019-04-20T13:55:51.935Z,4.03
2019-04-20T13:58:38.161Z,4.40
2019-04-20T14:01:22.980Z,4.30
2019-04-20T14:04:08.213Z,3.97
2019-04-20T14:06:37.315Z,4.10
2019-04-20T14:09:07.418Z,3.93
2019-04-20T14:11:35.685Z,4.77
2019-04-20T14:14:06.533Z,4.17
2019-04-20T14:16:34.730Z,3.73
2019-04-20T14:19:03.013Z,4.20
2019-04-20T14:21:32.165Z,4.07
2019-04-20T14:24:01.325Z,3.70
2019-04-20T14:26:30.595Z,3.60
2019-04-20T14:28:59.013Z,4.60
2019-04-20T14:31:27.938Z,3.70
2019-04-20T14:33:57.219Z,3.53
2019-04-20T14:36:26.486Z,3.60
2019-04-20T14:38:54.531Z,3.30
2019-04-20T14:41:22.652Z,3.23
2019-04-20T14:43:51.216Z,3.40
2019-04-20T14:46:19.286Z,3.40
2019-04-20T14:48:47.216Z,3.23
2019-04-20T14:51:15.165Z,3.30
2019-04-20T14:53:43.271Z,3.30
2019-04-20T14:56:11.476Z,3.20
2019-04-20T14:58:49.411Z,3.47
2019-04-20T15:01:27.610Z,3.47
2019-04-20T15:03:59.784Z,3.50
2019-04-20T15:06:25.539Z,3.33
2019-04-20T15:08:54.710Z,3.40
2019-04-20T15:11:22.954Z,3.50
2019-04-20T15:13:50.942Z,3.20
2019-04-20T15:16:20.259Z,3.57
2019-04-20T15:18:55.241Z,3.20
2019-04-20T15:21:23.792Z,3.17
2019-04-20T15:23:53.220Z,3.10
2019-04-20T15:26:22.456Z,3.40
2019-04-20T15:28:50.512Z,3.27
2019-04-20T15:31:18.555Z,3.40
2019-04-20T15:33:46.461Z,3.57
2019-04-20T15:36:14.419Z,3.20
2019-04-20T15:38:43.010Z,3.10
2019-04-20T15:41:13.259Z,3.33
2019-04-20T15:43:41.538Z,3.03
2019-04-20T15:46:09.664Z,3.10
2019-04-20T15:48:37.794Z,3.47
2019-04-20T15:51:05.886Z,2.93
2019-04-20T15:53:33.851Z,3.43
2019-04-20T15:56:04.976Z,3.30
2019-04-20T15:58:32.376Z,3.17
2019-04-20T16:01:02.702Z,3.37
2019-04-20T16:03:35.232Z,3.13
2019-04-20T16:06:05.413Z,3.13
2019-04-20T16:08:38.770Z,3.10
2019-04-20T16:11:09.119Z,3.10
2019-04-20T16:13:42.011Z,3.00
2019-04-20T16:16:07.903Z,2.97
2019-04-20T16:18:37.122Z,3.03
2019-04-20T16:21:09.839Z,3.10
2019-04-20T16:23:54.790Z,3.40
2019-04-20T16:26:42.000Z,3.47
2019-04-20T16:29:11.545Z,3.33
2019-04-20T16:31:40.545Z,3.10
2019-04-20T16:34:09.532Z,3.53
2019-04-20T16:36:38.926Z,3.40
2019-04-20T16:39:09.308Z,3.30
2019-04-20T16:41:38.212Z,3.30
2019-04-20T16:44:07.167Z,3.13
2019-04-20T16:46:36.309Z,3.50
2019-04-20T16:49:05.220Z,3.33
2019-04-20T16:51:34.620Z,3.30
2019-04-20T16:54:03.753Z,3.30
2019-04-20T16:56:32.949Z,3.40
2019-04-20T16:59:06.197Z,3.47
2019-04-20T17:01:31.710Z,3.67
2019-04-20T17:04:07.283Z,5.47
2019-04-20T17:06:29.974Z,3.23
2019-04-20T17:08:58.765Z,3.67
2019-04-20T17:11:27.701Z,3.70
2019-04-20T17:13:58.099Z,3.50
2019-04-20T17:16:25.933Z,4.57
2019-04-20T17:18:55.266Z,3.90
2019-04-20T17:21:26.794Z,3.40
2019-04-20T17:23:53.193Z,3.60
2019-04-20T17:26:36.921Z,3.70
2019-04-20T17:29:16.094Z,3.30
2019-04-20T17:32:09.839Z,3.30
2019-04-20T17:34:57.295Z,3.30
2019-04-20T17:37:08.828Z,3.33
2019-04-20T17:40:01.741Z,3.40
2019-04-20T17:42:27.693Z,2.87
2019-04-20T17:44:52.793Z,3.60
2019-04-20T17:47:30.294Z,3.30
2019-04-20T17:50:02.077Z,3.40
2019-04-20T17:52:36.660Z,3.80
2019-04-20T17:54:51.814Z,3.07
2019-04-20T17:57:19.779Z,3.13
2019-04-20T17:59:58.002Z,3.10
2019-04-20T18:02:53.569Z,3.30
2019-04-20T18:05:32.812Z,3.77
2019-04-20T18:08:07.888Z,3.80
2019-04-20T18:10:26.396Z,5.10
2019-04-20T18:12:45.801Z,3.70
2019-04-20T18:15:28.157Z,3.60
2019-04-20T18:18:25.960Z,3.60
2019-04-20T18:21:01.039Z,4.10
2019-04-20T18:23:36.571Z,3.23
2019-04-20T18:26:23.720Z,3.27
2019-04-20T18:28:54.506Z,5.23
2019-04-20T18:31:23.752Z,3.43
2019-04-20T18:33:56.175Z,3.40
2019-04-20T18:36:30.777Z,3.50
2019-04-20T18:39:01.893Z,3.90
2019-04-20T18:41:30.855Z,3.90
2019-04-20T18:43:58.498Z,3.80
2019-04-20T18:46:39.248Z,3.50
2019-04-20T18:49:12.719Z,3.63
2019-04-20T18:51:24.360Z,4.00
2019-04-20T18:53:55.183Z,3.53
2019-04-20T18:56:30.021Z,3.70
2019-04-20T18:58:53.456Z,3.83
2019-04-20T19:01:29.547Z,4.10
2019-04-20T19:03:52.349Z,3.77
2019-04-20T19:06:21.267Z,3.40
2019-04-20T19:08:51.826Z,4.00
2019-04-20T19:11:21.638Z,3.93
2019-04-20T19:14:19.118Z,3.70
2019-04-20T19:16:58.036Z,3.47
2019-04-20T19:19:28.119Z,3.77
2019-04-20T19:21:49.995Z,4.03
2019-04-20T19:24:20.277Z,3.80
2019-04-20T19:26:51.481Z,4.10
2019-04-20T19:29:27.536Z,3.73
2019-04-20T19:32:07.323Z,3.53
2019-04-20T19:34:35.371Z,3.70
2019-04-20T19:36:59.091Z,3.97
2019-04-20T19:39:29.839Z,3.67
2019-04-20T19:41:52.851Z,3.80
2019-04-20T19:44:26.765Z,3.70
2019-04-20T19:47:04.883Z,4.00
2019-04-20T19:49:25.669Z,3.73
2019-04-20T19:52:13.619Z,3.47
2019-04-20T19:54:34.099Z,3.40
2019-04-20T19:56:58.216Z,3.70
2019-04-20T19:59:24.864Z,3.60
2019-04-20T20:01:43.180Z,3.37
2019-04-20T20:04:11.913Z,3.63
2019-04-20T20:06:47.100Z,3.40
2019-04-20T20:09:12.849Z,3.60
2019-04-20T20:11:42.971Z,3.63
2019-04-20T20:14:11.781Z,3.60
2019-04-20T20:16:58.929Z,3.50
2019-04-20T20:19:21.007Z,3.43
2019-04-20T20:21:55.505Z,3.70
2019-04-20T20:24:13.125Z,3.37
2019-04-20T20:26:48.563Z,3.53
2019-04-20T20:29:19.692Z,3.33
2019-04-20T20:31:52.979Z,3.60
2019-04-20T20:34:24.602Z,3.10
2019-04-20T20:36:54.871Z,3.00
2019-04-20T20:39:24.260Z,3.33
2019-04-20T20:41:59.564Z,3.73
2019-04-20T20:44:28.696Z,3.17
2019-04-20T20:46:58.732Z,3.33
2019-04-20T20:49:32.819Z,3.30
2019-04-20T20:52:08.338Z,3.33
2019-04-20T20:54:32.227Z,3.40
2019-04-20T20:56:51.108Z,3.40
2019-04-20T20:59:26.847Z,3.37
2019-04-20T21:01:52.389Z,3.53
2019-04-20T21:04:13.211Z,3.90
2019-04-20T21:06:42.565Z,3.83
2019-04-20T21:09:10.688Z,3.77
2019-04-20T21:11:40.061Z,3.57
2019-04-20T21:14:08.939Z,3.57
2019-04-20T21:16:46.865Z,3.57
2019-04-20T21:19:21.424Z,3.40
2019-04-20T21:21:48.127Z,3.57
2019-04-20T21:24:19.554Z,3.87
2019-04-20T21:26:47.671Z,3.70
2019-04-20T21:29:20.483Z,3.53
2019-04-20T21:31:55.674Z,4.07
2019-04-20T21:34:19.942Z,3.60
2019-04-20T21:36:45.070Z,3.53
2019-04-20T21:39:22.023Z,3.73
2019-04-20T21:41:49.694Z,3.67
2019-04-20T21:44:19.101Z,3.93
2019-04-20T21:46:48.809Z,3.60
2019-04-20T21:49:26.286Z,3.57
2019-04-20T21:51:49.755Z,3.37
2019-04-20T21:54:11.990Z,3.50
2019-04-20T21:56:48.808Z,3.63
2019-04-20T21:59:17.627Z,3.57
2019-04-20T22:01:47.726Z,3.63
2019-04-20T22:04:10.333Z,3.70
2019-04-20T22:06:38.431Z,3.63
2019-04-20T22:09:09.083Z,3.80
2019-04-20T22:11:37.922Z,3.30
2019-04-20T22:14:13.628Z,3.80
2019-04-20T22:16:42.109Z,3.80
2019-04-20T22:19:20.940Z,3.90
2019-04-20T22:21:48.288Z,3.80
2019-04-20T22:24:19.500Z,3.60
2019-04-20T22:26:47.720Z,3.53
2019-04-20T22:29:03.775Z,4.30
2019-04-20T22:31:31.925Z,3.40
2019-04-20T22:34:02.343Z,3.80
2019-04-20T22:36:35.561Z,3.77
2019-04-20T22:39:13.759Z,3.53
2019-04-20T22:41:53.707Z,3.63
2019-04-20T22:44:21.419Z,3.90
2019-04-20T22:46:48.159Z,3.63
2019-04-20T22:49:33.693Z,3.50
2019-04-20T22:51:55.604Z,3.40
2019-04-20T22:54:33.446Z,3.63
2019-04-20T22:56:57.595Z,3.70
2019-04-20T22:59:19.114Z,3.50
2019-04-20T23:01:48.483Z,3.80
2019-04-20T23:04:14.981Z,3.63
2019-04-20T23:06:47.907Z,3.63
2019-04-20T23:09:14.894Z,3.80
2019-04-20T23:11:42.477Z,4.37
2019-04-20T23:14:10.804Z,4.33
2019-04-20T23:16:43.924Z,4.10
2019-04-20T23:19:10.019Z,4.00
2019-04-20T23:21:40.072Z,3.80
2019-04-20T23:24:10.053Z,3.70
2019-04-20T23:26:40.827Z,3.60
2019-04-20T23:29:07.253Z,3.77
2019-04-20T23:31:41.336Z,3.63
2019-04-20T23:34:11.957Z,4.30
2019-04-20T23:36:39.069Z,4.13
2019-04-20T23:39:06.571Z,4.50
2019-04-20T23:41:35.720Z,3.77
2019-04-20T23:44:29.337Z,4.10
2019-04-20T23:47:19.773Z,3.57
2019-04-20T23:50:06.417Z,4.00
2019-04-20T23:52:44.391Z,3.90
2019-04-20T23:54:58.129Z,4.00
2019-04-20T23:57:19.863Z,4.37
2019-04-20T23:59:48.645Z,4.20
